sensor_id;sensor_type;location;lat;lon;timestamp;P1;durP1;ratioP1;P2;durP2;ratioP2
15488;SDS011;7846;48.830;9.116;2022-08-21T00:00:49;6.03;;;1.80;;
15488;SDS011;7846;48.830;9.116;2022-08-21T00:03:15;2.30;;;1.87;;
15488;SDS011;7846;48.830;9.116;2022-08-21T00:05:41;2.93;;;1.90;;
15488;SDS011;7846;48.830;9.116;2022-08-21T00:08:10;2.77;;;1.83;;
15488;SDS011;7846;48.830;9.116;2022-08-21T00:10:36;3.43;;;1.73;;
15488;SDS011;7846;48.830;9.116;2022-08-21T00:13:04;3.40;;;1.87;;
15488;SDS011;7846;48.830;9.116;2022-08-21T00:15:30;3.23;;;1.90;;
15488;SDS011;7846;48.830;9.116;2022-08-21T00:17:57;3.23;;;1.93;;
15488;SDS011;7846;48.830;9.116;2022-08-21T00:20:23;3.63;;;2.00;;
15488;SDS011;7846;48.830;9.116;2022-08-21T00:22:49;2.43;;;1.80;;
15488;SDS011;7846;48.830;9.116;2022-08-21T00:25:15;3.23;;;1.97;;
15488;SDS011;7846;48.830;9.116;2022-08-21T00:27:41;2.67;;;1.60;;
15488;SDS011;7846;48.830;9.116;2022-08-21T00:30:08;3.83;;;1.90;;
15488;SDS011;7846;48.830;9.116;2022-08-21T00:32:36;3.83;;;2.10;;
15488;SDS011;7846;48.830;9.116;2022-08-21T00:35:03;2.50;;;1.83;;
15488;SDS011;7846;48.830;9.116;2022-08-21T00:37:30;2.30;;;1.80;;
15488;SDS011;7846;48.830;9.116;2022-08-21T00:39:55;2.87;;;1.93;;
15488;SDS011;7846;48.830;9.116;2022-08-21T00:42:21;2.13;;;1.80;;
15488;SDS011;7846;48.830;9.116;2022-08-21T00:44:50;2.57;;;1.80;;
15488;SDS011;7846;48.830;9.116;2022-08-21T00:47:17;3.60;;;2.10;;
15488;SDS011;7846;48.830;9.116;2022-08-21T00:49:44;3.63;;;1.90;;
15488;SDS011;7846;48.830;9.116;2022-08-21T00:52:11;3.47;;;1.87;;
15488;SDS011;7846;48.830;9.116;2022-08-21T00:54:42;3.03;;;1.80;;
15488;SDS011;7846;48.830;9.116;2022-08-21T00:57:31;2.10;;;1.90;;
15488;SDS011;7846;48.830;9.116;2022-08-21T00:59:58;2.27;;;2.00;;
15488;SDS011;7846;48.830;9.116;2022-08-21T01:02:26;2.43;;;1.97;;
15488;SDS011;7846;48.830;9.116;2022-08-21T01:04:51;2.73;;;1.93;;
15488;SDS011;7846;48.830;9.116;2022-08-21T01:07:17;2.90;;;2.00;;
15488;SDS011;7846;48.830;9.116;2022-08-21T01:09:43;2.10;;;1.90;;
15488;SDS011;7846;48.830;9.116;2022-08-21T01:12:11;2.93;;;1.97;;
15488;SDS011;7846;48.830;9.116;2022-08-21T01:14:41;3.07;;;2.23;;
15488;SDS011;7846;48.830;9.116;2022-08-21T01:17:13;4.73;;;2.00;;
15488;SDS011;7846;48.830;9.116;2022-08-21T01:19:42;2.77;;;1.80;;
15488;SDS011;7846;48.830;9.116;2022-08-21T01:22:08;2.80;;;1.90;;
15488;SDS011;7846;48.830;9.116;2022-08-21T01:24:35;3.87;;;2.13;;
15488;SDS011;7846;48.830;9.116;2022-08-21T01:27:00;3.30;;;2.30;;
15488;SDS011;7846;48.830;9.116;2022-08-21T01:29:30;5.17;;;1.90;;
15488;SDS011;7846;48.830;9.116;2022-08-21T01:32:03;4.10;;;2.30;;
15488;SDS011;7846;48.830;9.116;2022-08-21T01:34:40;4.07;;;2.30;;
15488;SDS011;7846;48.830;9.116;2022-08-21T01:37:07;4.73;;;1.87;;
15488;SDS011;7846;48.830;9.116;2022-08-21T01:39:33;2.67;;;2.13;;
15488;SDS011;7846;48.830;9.116;2022-08-21T01:41:58;2.87;;;2.00;;
15488;SDS011;7846;48.830;9.116;2022-08-21T01:44:24;3.47;;;2.00;;
15488;SDS011;7846;48.830;9.116;2022-08-21T01:46:50;5.47;;;2.37;;
15488;SDS011;7846;48.830;9.116;2022-08-21T01:49:18;2.73;;;1.80;;
15488;SDS011;7846;48.830;9.116;2022-08-21T01:51:44;3.97;;;2.00;;
15488;SDS011;7846;48.830;9.116;2022-08-21T01:54:09;5.37;;;2.30;;
15488;SDS011;7846;48.830;9.116;2022-08-21T01:56:36;3.93;;;2.10;;
15488;SDS011;7846;48.830;9.116;2022-08-21T01:59:04;3.23;;;2.03;;
15488;SDS011;7846;48.830;9.116;2022-08-21T02:01:29;4.43;;;1.90;;
15488;SDS011;7846;48.830;9.116;2022-08-21T02:03:54;3.57;;;2.20;;
15488;SDS011;7846;48.830;9.116;2022-08-21T02:06:20;3.33;;;1.90;;
15488;SDS011;7846;48.830;9.116;2022-08-21T02:08:46;4.73;;;1.90;;
15488;SDS011;7846;48.830;9.116;2022-08-21T02:11:11;2.67;;;2.10;;
15488;SDS011;7846;48.830;9.116;2022-08-21T02:13:38;4.47;;;2.33;;
15488;SDS011;7846;48.830;9.116;2022-08-21T02:16:06;2.57;;;1.87;;
15488;SDS011;7846;48.830;9.116;2022-08-21T02:18:32;3.03;;;2.10;;
15488;SDS011;7846;48.830;9.116;2022-08-21T02:20:58;4.13;;;2.10;;
15488;SDS011;7846;48.830;9.116;2022-08-21T02:23:25;3.10;;;1.93;;
15488;SDS011;7846;48.830;9.116;2022-08-21T02:25:51;4.70;;;2.20;;
15488;SDS011;7846;48.830;9.116;2022-08-21T02:28:16;5.93;;;2.20;;
15488;SDS011;7846;48.830;9.116;2022-08-21T02:30:44;4.73;;;2.20;;
15488;SDS011;7846;48.830;9.116;2022-08-21T02:33:11;4.97;;;2.50;;
15488;SDS011;7846;48.830;9.116;2022-08-21T02:35:37;3.40;;;2.40;;
15488;SDS011;7846;48.830;9.116;2022-08-21T02:38:07;4.87;;;2.10;;
15488;SDS011;7846;48.830;9.116;2022-08-21T02:40:35;3.23;;;2.27;;
15488;SDS011;7846;48.830;9.116;2022-08-21T02:43:04;3.27;;;2.20;;
15488;SDS011;7846;48.830;9.116;2022-08-21T02:45:30;3.17;;;2.20;;
15488;SDS011;7846;48.830;9.116;2022-08-21T02:48:00;2.37;;;2.10;;
15488;SDS011;7846;48.830;9.116;2022-08-21T02:50:30;2.40;;;2.20;;
15488;SDS011;7846;48.830;9.116;2022-08-21T02:53:03;3.07;;;2.30;;
15488;SDS011;7846;48.830;9.116;2022-08-21T02:55:34;3.80;;;2.60;;
15488;SDS011;7846;48.830;9.116;2022-08-21T02:58:02;5.17;;;2.53;;
15488;SDS011;7846;48.830;9.116;2022-08-21T03:00:30;4.30;;;2.37;;
15488;SDS011;7846;48.830;9.116;2022-08-21T03:02:56;5.27;;;2.40;;
15488;SDS011;7846;48.830;9.116;2022-08-21T03:05:22;2.87;;;2.30;;
15488;SDS011;7846;48.830;9.116;2022-08-21T03:07:49;2.77;;;2.40;;
15488;SDS011;7846;48.830;9.116;2022-08-21T03:10:14;4.27;;;2.17;;
15488;SDS011;7846;48.830;9.116;2022-08-21T03:12:41;5.23;;;2.50;;
15488;SDS011;7846;48.830;9.116;2022-08-21T03:15:09;3.80;;;2.33;;
15488;SDS011;7846;48.830;9.116;2022-08-21T03:17:36;4.17;;;2.50;;
15488;SDS011;7846;48.830;9.116;2022-08-21T03:20:03;4.23;;;2.30;;
15488;SDS011;7846;48.830;9.116;2022-08-21T03:22:30;3.13;;;2.10;;
15488;SDS011;7846;48.830;9.116;2022-08-21T03:24:57;3.33;;;2.30;;
15488;SDS011;7846;48.830;9.116;2022-08-21T03:27:24;4.03;;;2.40;;
15488;SDS011;7846;48.830;9.116;2022-08-21T03:29:51;4.20;;;2.10;;
15488;SDS011;7846;48.830;9.116;2022-08-21T03:32:17;3.53;;;2.40;;
15488;SDS011;7846;48.830;9.116;2022-08-21T03:34:43;3.30;;;2.40;;
15488;SDS011;7846;48.830;9.116;2022-08-21T03:37:09;3.90;;;2.70;;
15488;SDS011;7846;48.830;9.116;2022-08-21T03:39:35;4.50;;;2.60;;
15488;SDS011;7846;48.830;9.116;2022-08-21T03:42:01;3.70;;;2.70;;
15488;SDS011;7846;48.830;9.116;2022-08-21T03:44:26;5.13;;;2.90;;
15488;SDS011;7846;48.830;9.116;2022-08-21T03:46:55;3.33;;;2.53;;
15488;SDS011;7846;48.830;9.116;2022-08-21T03:49:21;3.30;;;2.40;;
15488;SDS011;7846;48.830;9.116;2022-08-21T03:51:47;2.80;;;2.20;;
15488;SDS011;7846;48.830;9.116;2022-08-21T03:54:12;4.33;;;2.40;;
15488;SDS011;7846;48.830;9.116;2022-08-21T03:56:37;4.97;;;2.40;;
15488;SDS011;7846;48.830;9.116;2022-08-21T03:59:04;2.73;;;2.47;;
15488;SDS011;7846;48.830;9.116;2022-08-21T04:01:30;4.10;;;2.60;;
15488;SDS011;7846;48.830;9.116;2022-08-21T04:03:56;3.93;;;2.47;;
15488;SDS011;7846;48.830;9.116;2022-08-21T04:06:22;2.70;;;2.50;;
15488;SDS011;7846;48.830;9.116;2022-08-21T04:08:52;3.80;;;2.23;;
15488;SDS011;7846;48.830;9.116;2022-08-21T04:11:18;3.43;;;2.57;;
15488;SDS011;7846;48.830;9.116;2022-08-21T04:13:44;3.10;;;2.57;;
15488;SDS011;7846;48.830;9.116;2022-08-21T04:16:11;2.60;;;2.30;;
15488;SDS011;7846;48.830;9.116;2022-08-21T04:18:38;3.20;;;2.40;;
15488;SDS011;7846;48.830;9.116;2022-08-21T04:21:04;3.03;;;2.67;;
15488;SDS011;7846;48.830;9.116;2022-08-21T04:23:33;3.10;;;2.30;;
15488;SDS011;7846;48.830;9.116;2022-08-21T04:25:59;3.67;;;2.60;;
15488;SDS011;7846;48.830;9.116;2022-08-21T04:28:25;4.00;;;2.40;;
15488;SDS011;7846;48.830;9.116;2022-08-21T04:30:52;4.90;;;2.67;;
15488;SDS011;7846;48.830;9.116;2022-08-21T04:33:18;5.30;;;2.93;;
15488;SDS011;7846;48.830;9.116;2022-08-21T04:35:44;5.50;;;2.77;;
15488;SDS011;7846;48.830;9.116;2022-08-21T04:38:10;5.83;;;3.20;;
15488;SDS011;7846;48.830;9.116;2022-08-21T04:40:35;5.37;;;3.07;;
15488;SDS011;7846;48.830;9.116;2022-08-21T04:43:03;3.30;;;2.73;;
15488;SDS011;7846;48.830;9.116;2022-08-21T04:45:35;2.80;;;2.50;;
15488;SDS011;7846;48.830;9.116;2022-08-21T04:48:03;3.07;;;2.80;;
15488;SDS011;7846;48.830;9.116;2022-08-21T04:50:42;4.47;;;3.03;;
15488;SDS011;7846;48.830;9.116;2022-08-21T04:53:16;3.57;;;3.10;;
15488;SDS011;7846;48.830;9.116;2022-08-21T04:55:45;4.70;;;2.97;;
15488;SDS011;7846;48.830;9.116;2022-08-21T04:58:13;6.53;;;2.70;;
15488;SDS011;7846;48.830;9.116;2022-08-21T05:00:45;5.23;;;2.57;;
15488;SDS011;7846;48.830;9.116;2022-08-21T05:03:13;4.50;;;2.80;;
15488;SDS011;7846;48.830;9.116;2022-08-21T05:05:41;3.03;;;2.63;;
15488;SDS011;7846;48.830;9.116;2022-08-21T05:08:08;4.30;;;2.60;;
15488;SDS011;7846;48.830;9.116;2022-08-21T05:10:37;4.57;;;2.67;;
15488;SDS011;7846;48.830;9.116;2022-08-21T05:13:02;5.17;;;2.60;;
15488;SDS011;7846;48.830;9.116;2022-08-21T05:15:28;4.57;;;2.60;;
15488;SDS011;7846;48.830;9.116;2022-08-21T05:17:55;4.67;;;3.03;;
15488;SDS011;7846;48.830;9.116;2022-08-21T05:20:20;3.33;;;2.60;;
15488;SDS011;7846;48.830;9.116;2022-08-21T05:22:45;3.80;;;2.70;;
15488;SDS011;7846;48.830;9.116;2022-08-21T05:25:11;4.77;;;2.70;;
15488;SDS011;7846;48.830;9.116;2022-08-21T05:27:38;5.43;;;3.07;;
15488;SDS011;7846;48.830;9.116;2022-08-21T05:30:04;2.90;;;2.60;;
15488;SDS011;7846;48.830;9.116;2022-08-21T05:32:32;4.50;;;3.10;;
15488;SDS011;7846;48.830;9.116;2022-08-21T05:34:57;3.47;;;2.70;;
15488;SDS011;7846;48.830;9.116;2022-08-21T05:37:23;4.77;;;3.20;;
15488;SDS011;7846;48.830;9.116;2022-08-21T05:39:48;4.70;;;2.80;;
15488;SDS011;7846;48.830;9.116;2022-08-21T05:42:16;4.67;;;2.93;;
15488;SDS011;7846;48.830;9.116;2022-08-21T05:44:44;4.17;;;2.93;;
15488;SDS011;7846;48.830;9.116;2022-08-21T05:47:11;5.93;;;3.30;;
15488;SDS011;7846;48.830;9.116;2022-08-21T05:49:37;3.00;;;2.60;;
15488;SDS011;7846;48.830;9.116;2022-08-21T05:52:02;3.37;;;2.40;;
15488;SDS011;7846;48.830;9.116;2022-08-21T05:54:28;3.23;;;2.90;;
15488;SDS011;7846;48.830;9.116;2022-08-21T05:56:54;3.97;;;2.80;;
15488;SDS011;7846;48.830;9.116;2022-08-21T05:59:19;2.93;;;2.63;;
15488;SDS011;7846;48.830;9.116;2022-08-21T06:01:45;4.63;;;2.90;;
15488;SDS011;7846;48.830;9.116;2022-08-21T06:04:11;3.43;;;2.90;;
15488;SDS011;7846;48.830;9.116;2022-08-21T06:06:37;4.50;;;2.97;;
15488;SDS011;7846;48.830;9.116;2022-08-21T06:09:02;4.10;;;2.80;;
15488;SDS011;7846;48.830;9.116;2022-08-21T06:11:29;3.23;;;2.87;;
15488;SDS011;7846;48.830;9.116;2022-08-21T06:13:55;5.93;;;2.90;;
15488;SDS011;7846;48.830;9.116;2022-08-21T06:16:21;6.23;;;3.20;;
15488;SDS011;7846;48.830;9.116;2022-08-21T06:18:47;6.30;;;3.10;;
15488;SDS011;7846;48.830;9.116;2022-08-21T06:21:13;4.30;;;2.70;;
15488;SDS011;7846;48.830;9.116;2022-08-21T06:23:43;3.57;;;2.80;;
15488;SDS011;7846;48.830;9.116;2022-08-21T06:26:09;3.37;;;2.70;;
15488;SDS011;7846;48.830;9.116;2022-08-21T06:28:36;3.37;;;2.53;;
15488;SDS011;7846;48.830;9.116;2022-08-21T06:31:09;3.00;;;2.43;;
15488;SDS011;7846;48.830;9.116;2022-08-21T06:33:40;5.67;;;2.70;;
15488;SDS011;7846;48.830;9.116;2022-08-21T06:36:06;3.77;;;2.87;;
15488;SDS011;7846;48.830;9.116;2022-08-21T06:38:31;3.80;;;2.73;;
15488;SDS011;7846;48.830;9.116;2022-08-21T06:40:59;4.90;;;2.67;;
15488;SDS011;7846;48.830;9.116;2022-08-21T06:43:25;4.33;;;2.50;;
15488;SDS011;7846;48.830;9.116;2022-08-21T06:45:51;3.37;;;2.77;;
15488;SDS011;7846;48.830;9.116;2022-08-21T06:48:16;4.00;;;2.70;;
15488;SDS011;7846;48.830;9.116;2022-08-21T06:50:41;4.80;;;2.67;;
15488;SDS011;7846;48.830;9.116;2022-08-21T06:53:09;4.10;;;2.83;;
15488;SDS011;7846;48.830;9.116;2022-08-21T06:55:36;2.90;;;2.60;;
15488;SDS011;7846;48.830;9.116;2022-08-21T06:58:03;3.37;;;2.53;;
15488;SDS011;7846;48.830;9.116;2022-08-21T07:00:29;4.97;;;2.80;;
15488;SDS011;7846;48.830;9.116;2022-08-21T07:02:56;6.33;;;2.60;;
15488;SDS011;7846;48.830;9.116;2022-08-21T07:05:22;4.70;;;2.60;;
15488;SDS011;7846;48.830;9.116;2022-08-21T07:07:50;3.07;;;2.60;;
15488;SDS011;7846;48.830;9.116;2022-08-21T07:10:16;5.90;;;2.70;;
15488;SDS011;7846;48.830;9.116;2022-08-21T07:12:42;4.60;;;2.53;;
15488;SDS011;7846;48.830;9.116;2022-08-21T07:15:08;5.00;;;2.63;;
15488;SDS011;7846;48.830;9.116;2022-08-21T07:17:34;4.17;;;2.70;;
15488;SDS011;7846;48.830;9.116;2022-08-21T07:22:11;4.47;;;2.70;;
15488;SDS011;7846;48.830;9.116;2022-08-21T07:24:38;6.33;;;2.97;;
15488;SDS011;7846;48.830;9.116;2022-08-21T07:27:03;4.07;;;3.00;;
15488;SDS011;7846;48.830;9.116;2022-08-21T07:29:30;7.67;;;3.00;;
15488;SDS011;7846;48.830;9.116;2022-08-21T07:31:55;5.03;;;2.87;;
15488;SDS011;7846;48.830;9.116;2022-08-21T07:34:23;6.20;;;3.00;;
15488;SDS011;7846;48.830;9.116;2022-08-21T07:36:50;5.13;;;3.30;;
15488;SDS011;7846;48.830;9.116;2022-08-21T07:39:16;3.97;;;2.53;;
15488;SDS011;7846;48.830;9.116;2022-08-21T07:41:41;6.17;;;2.83;;
15488;SDS011;7846;48.830;9.116;2022-08-21T07:44:08;6.20;;;3.23;;
15488;SDS011;7846;48.830;9.116;2022-08-21T07:46:35;4.63;;;2.80;;
15488;SDS011;7846;48.830;9.116;2022-08-21T07:49:00;5.53;;;3.10;;
15488;SDS011;7846;48.830;9.116;2022-08-21T07:51:26;4.57;;;2.80;;
15488;SDS011;7846;48.830;9.116;2022-08-21T07:53:54;6.87;;;3.23;;
15488;SDS011;7846;48.830;9.116;2022-08-21T07:56:24;6.73;;;3.20;;
15488;SDS011;7846;48.830;9.116;2022-08-21T07:58:49;4.73;;;3.00;;
15488;SDS011;7846;48.830;9.116;2022-08-21T08:01:15;7.63;;;2.93;;
15488;SDS011;7846;48.830;9.116;2022-08-21T08:03:41;5.13;;;3.00;;
15488;SDS011;7846;48.830;9.116;2022-08-21T08:06:07;3.67;;;2.50;;
15488;SDS011;7846;48.830;9.116;2022-08-21T08:08:40;5.73;;;2.97;;
15488;SDS011;7846;48.830;9.116;2022-08-21T08:11:07;6.47;;;2.90;;
15488;SDS011;7846;48.830;9.116;2022-08-21T08:13:42;7.10;;;3.03;;
15488;SDS011;7846;48.830;9.116;2022-08-21T08:16:10;4.80;;;2.80;;
15488;SDS011;7846;48.830;9.116;2022-08-21T08:18:36;5.03;;;3.00;;
15488;SDS011;7846;48.830;9.116;2022-08-21T08:21:02;6.37;;;3.50;;
15488;SDS011;7846;48.830;9.116;2022-08-21T08:23:27;5.53;;;2.73;;
15488;SDS011;7846;48.830;9.116;2022-08-21T08:25:53;3.97;;;3.13;;
15488;SDS011;7846;48.830;9.116;2022-08-21T08:28:18;5.57;;;3.03;;
15488;SDS011;7846;48.830;9.116;2022-08-21T08:30:44;6.73;;;3.10;;
15488;SDS011;7846;48.830;9.116;2022-08-21T08:33:11;6.53;;;3.20;;
15488;SDS011;7846;48.830;9.116;2022-08-21T08:35:37;4.83;;;3.17;;
15488;SDS011;7846;48.830;9.116;2022-08-21T08:38:03;5.40;;;3.07;;
15488;SDS011;7846;48.830;9.116;2022-08-21T08:42:55;4.63;;;2.97;;
15488;SDS011;7846;48.830;9.116;2022-08-21T08:45:22;3.67;;;3.00;;
15488;SDS011;7846;48.830;9.116;2022-08-21T08:47:52;7.43;;;2.80;;
15488;SDS011;7846;48.830;9.116;2022-08-21T08:53:11;3.13;;;2.80;;
15488;SDS011;7846;48.830;9.116;2022-08-21T08:55:55;4.37;;;2.93;;
15488;SDS011;7846;48.830;9.116;2022-08-21T08:58:29;5.90;;;3.00;;
15488;SDS011;7846;48.830;9.116;2022-08-21T09:00:57;4.17;;;2.83;;
15488;SDS011;7846;48.830;9.116;2022-08-21T09:03:24;4.47;;;2.80;;
15488;SDS011;7846;48.830;9.116;2022-08-21T09:05:56;5.33;;;2.90;;
15488;SDS011;7846;48.830;9.116;2022-08-21T09:08:42;4.77;;;2.80;;
15488;SDS011;7846;48.830;9.116;2022-08-21T09:11:21;5.57;;;2.93;;
15488;SDS011;7846;48.830;9.116;2022-08-21T09:16:46;5.13;;;2.80;;
15488;SDS011;7846;48.830;9.116;2022-08-21T09:22:23;6.47;;;3.20;;
15488;SDS011;7846;48.830;9.116;2022-08-21T09:27:25;5.03;;;3.27;;
15488;SDS011;7846;48.830;9.116;2022-08-21T09:29:52;6.47;;;2.90;;
15488;SDS011;7846;48.830;9.116;2022-08-21T09:32:24;5.63;;;2.77;;
15488;SDS011;7846;48.830;9.116;2022-08-21T09:37:35;6.17;;;3.00;;
15488;SDS011;7846;48.830;9.116;2022-08-21T09:40:21;4.43;;;2.73;;
15488;SDS011;7846;48.830;9.116;2022-08-21T09:43:03;5.53;;;3.07;;
15488;SDS011;7846;48.830;9.116;2022-08-21T09:45:39;6.47;;;3.00;;
15488;SDS011;7846;48.830;9.116;2022-08-21T09:50:35;5.40;;;3.10;;
15488;SDS011;7846;48.830;9.116;2022-08-21T09:53:00;5.27;;;2.73;;
15488;SDS011;7846;48.830;9.116;2022-08-21T09:55:33;7.37;;;3.17;;
15488;SDS011;7846;48.830;9.116;2022-08-21T09:58:29;4.33;;;2.70;;
15488;SDS011;7846;48.830;9.116;2022-08-21T10:01:00;5.80;;;2.90;;
15488;SDS011;7846;48.830;9.116;2022-08-21T10:03:27;5.47;;;3.03;;
15488;SDS011;7846;48.830;9.116;2022-08-21T10:08:23;4.57;;;2.73;;
15488;SDS011;7846;48.830;9.116;2022-08-21T10:10:57;6.87;;;2.80;;
15488;SDS011;7846;48.830;9.116;2022-08-21T10:14:13;5.77;;;3.00;;
15488;SDS011;7846;48.830;9.116;2022-08-21T10:19:36;6.03;;;2.97;;
15488;SDS011;7846;48.830;9.116;2022-08-21T10:27:34;4.77;;;2.70;;
15488;SDS011;7846;48.830;9.116;2022-08-21T10:33:21;4.83;;;3.10;;
15488;SDS011;7846;48.830;9.116;2022-08-21T10:41:27;4.87;;;3.00;;
15488;SDS011;7846;48.830;9.116;2022-08-21T10:47:12;4.50;;;2.77;;
15488;SDS011;7846;48.830;9.116;2022-08-21T10:50:00;3.37;;;2.60;;
15488;SDS011;7846;48.830;9.116;2022-08-21T10:55:35;5.93;;;2.60;;
15488;SDS011;7846;48.830;9.116;2022-08-21T10:58:09;5.43;;;3.07;;
15488;SDS011;7846;48.830;9.116;2022-08-21T11:00:56;4.30;;;2.60;;
15488;SDS011;7846;48.830;9.116;2022-08-21T11:03:39;3.50;;;2.40;;
15488;SDS011;7846;48.830;9.116;2022-08-21T11:06:11;5.40;;;3.00;;
15488;SDS011;7846;48.830;9.116;2022-08-21T11:08:41;5.17;;;2.60;;
15488;SDS011;7846;48.830;9.116;2022-08-21T11:11:12;4.27;;;2.63;;
15488;SDS011;7846;48.830;9.116;2022-08-21T11:13:43;3.50;;;2.63;;
15488;SDS011;7846;48.830;9.116;2022-08-21T11:19:00;8.13;;;2.60;;
15488;SDS011;7846;48.830;9.116;2022-08-21T11:21:35;4.23;;;2.50;;
15488;SDS011;7846;48.830;9.116;2022-08-21T11:27:23;4.57;;;2.73;;
15488;SDS011;7846;48.830;9.116;2022-08-21T11:29:54;5.50;;;2.87;;
15488;SDS011;7846;48.830;9.116;2022-08-21T11:35:23;4.60;;;2.70;;
15488;SDS011;7846;48.830;9.116;2022-08-21T11:43:30;4.27;;;2.60;;
15488;SDS011;7846;48.830;9.116;2022-08-21T11:48:48;6.03;;;2.73;;
15488;SDS011;7846;48.830;9.116;2022-08-21T11:51:36;5.03;;;2.50;;
15488;SDS011;7846;48.830;9.116;2022-08-21T11:57:04;4.97;;;2.50;;
15488;SDS011;7846;48.830;9.116;2022-08-21T12:02:31;4.40;;;2.47;;
15488;SDS011;7846;48.830;9.116;2022-08-21T12:05:02;6.33;;;2.63;;
15488;SDS011;7846;48.830;9.116;2022-08-21T12:07:41;3.43;;;2.30;;
15488;SDS011;7846;48.830;9.116;2022-08-21T12:10:10;5.90;;;2.37;;
15488;SDS011;7846;48.830;9.116;2022-08-21T12:12:38;5.00;;;2.43;;
15488;SDS011;7846;48.830;9.116;2022-08-21T12:15:23;5.17;;;2.57;;
15488;SDS011;7846;48.830;9.116;2022-08-21T12:18:00;4.43;;;2.60;;
15488;SDS011;7846;48.830;9.116;2022-08-21T12:25:41;3.93;;;2.60;;
15488;SDS011;7846;48.830;9.116;2022-08-21T12:28:28;3.67;;;2.50;;
15488;SDS011;7846;48.830;9.116;2022-08-21T12:30:57;3.90;;;2.50;;
15488;SDS011;7846;48.830;9.116;2022-08-21T12:33:25;3.13;;;2.33;;
15488;SDS011;7846;48.830;9.116;2022-08-21T12:36:01;4.30;;;2.60;;
15488;SDS011;7846;48.830;9.116;2022-08-21T12:38:34;3.53;;;2.37;;
15488;SDS011;7846;48.830;9.116;2022-08-21T12:41:15;4.00;;;2.67;;
15488;SDS011;7846;48.830;9.116;2022-08-21T12:44:03;4.30;;;2.50;;
15488;SDS011;7846;48.830;9.116;2022-08-21T12:46:37;4.57;;;2.30;;
15488;SDS011;7846;48.830;9.116;2022-08-21T12:49:13;4.90;;;2.33;;
15488;SDS011;7846;48.830;9.116;2022-08-21T12:51:54;3.57;;;2.20;;
15488;SDS011;7846;48.830;9.116;2022-08-21T12:54:28;3.80;;;2.40;;
15488;SDS011;7846;48.830;9.116;2022-08-21T12:57:04;2.43;;;2.00;;
15488;SDS011;7846;48.830;9.116;2022-08-21T12:59:31;2.60;;;2.10;;
15488;SDS011;7846;48.830;9.116;2022-08-21T13:01:59;3.30;;;2.20;;
15488;SDS011;7846;48.830;9.116;2022-08-21T13:04:36;4.13;;;2.30;;
15488;SDS011;7846;48.830;9.116;2022-08-21T13:07:06;2.63;;;2.20;;
15488;SDS011;7846;48.830;9.116;2022-08-21T13:09:35;3.23;;;2.37;;
15488;SDS011;7846;48.830;9.116;2022-08-21T13:12:09;3.00;;;1.90;;
15488;SDS011;7846;48.830;9.116;2022-08-21T13:14:45;3.27;;;2.17;;
15488;SDS011;7846;48.830;9.116;2022-08-21T13:17:12;3.93;;;2.20;;
15488;SDS011;7846;48.830;9.116;2022-08-21T13:19:52;4.10;;;2.10;;
15488;SDS011;7846;48.830;9.116;2022-08-21T13:22:20;2.37;;;2.07;;
15488;SDS011;7846;48.830;9.116;2022-08-21T13:24:47;3.13;;;2.23;;
15488;SDS011;7846;48.830;9.116;2022-08-21T13:27:23;2.80;;;2.20;;
15488;SDS011;7846;48.830;9.116;2022-08-21T13:30:11;3.00;;;2.00;;
15488;SDS011;7846;48.830;9.116;2022-08-21T13:32:45;3.07;;;2.20;;
15488;SDS011;7846;48.830;9.116;2022-08-21T13:35:34;2.57;;;2.10;;
15488;SDS011;7846;48.830;9.116;2022-08-21T13:38:13;3.43;;;2.07;;
15488;SDS011;7846;48.830;9.116;2022-08-21T13:40:44;5.33;;;2.17;;
15488;SDS011;7846;48.830;9.116;2022-08-21T13:43:14;4.20;;;2.20;;
15488;SDS011;7846;48.830;9.116;2022-08-21T13:45:44;4.13;;;2.20;;
15488;SDS011;7846;48.830;9.116;2022-08-21T13:48:13;3.07;;;2.20;;
15488;SDS011;7846;48.830;9.116;2022-08-21T13:50:39;3.13;;;2.10;;
15488;SDS011;7846;48.830;9.116;2022-08-21T13:53:07;3.10;;;2.30;;
15488;SDS011;7846;48.830;9.116;2022-08-21T13:55:44;3.40;;;2.20;;
15488;SDS011;7846;48.830;9.116;2022-08-21T13:58:11;4.77;;;2.57;;
15488;SDS011;7846;48.830;9.116;2022-08-21T14:00:47;3.67;;;2.07;;
15488;SDS011;7846;48.830;9.116;2022-08-21T14:03:23;4.70;;;2.10;;
15488;SDS011;7846;48.830;9.116;2022-08-21T14:05:55;4.47;;;2.03;;
15488;SDS011;7846;48.830;9.116;2022-08-21T14:08:24;2.77;;;2.00;;
15488;SDS011;7846;48.830;9.116;2022-08-21T14:10:54;3.07;;;2.10;;
15488;SDS011;7846;48.830;9.116;2022-08-21T14:16:25;2.80;;;1.90;;
15488;SDS011;7846;48.830;9.116;2022-08-21T14:19:15;2.80;;;2.10;;
15488;SDS011;7846;48.830;9.116;2022-08-21T14:21:48;3.40;;;2.00;;
15488;SDS011;7846;48.830;9.116;2022-08-21T14:26:50;3.70;;;2.20;;
15488;SDS011;7846;48.830;9.116;2022-08-21T14:29:21;2.50;;;1.93;;
15488;SDS011;7846;48.830;9.116;2022-08-21T14:31:53;2.40;;;1.97;;
15488;SDS011;7846;48.830;9.116;2022-08-21T14:34:22;3.50;;;2.03;;
15488;SDS011;7846;48.830;9.116;2022-08-21T14:36:49;3.80;;;2.10;;
15488;SDS011;7846;48.830;9.116;2022-08-21T14:39:16;2.93;;;2.10;;
15488;SDS011;7846;48.830;9.116;2022-08-21T14:41:41;3.37;;;2.30;;
15488;SDS011;7846;48.830;9.116;2022-08-21T14:44:08;2.63;;;2.03;;
15488;SDS011;7846;48.830;9.116;2022-08-21T14:46:34;2.37;;;1.90;;
15488;SDS011;7846;48.830;9.116;2022-08-21T14:49:02;2.97;;;2.03;;
15488;SDS011;7846;48.830;9.116;2022-08-21T14:51:28;2.33;;;1.93;;
15488;SDS011;7846;48.830;9.116;2022-08-21T14:53:54;2.90;;;1.70;;
15488;SDS011;7846;48.830;9.116;2022-08-21T14:56:20;2.10;;;1.80;;
15488;SDS011;7846;48.830;9.116;2022-08-21T14:58:49;2.13;;;1.83;;
15488;SDS011;7846;48.830;9.116;2022-08-21T15:01:18;3.37;;;1.83;;
15488;SDS011;7846;48.830;9.116;2022-08-21T15:03:45;3.60;;;2.03;;
15488;SDS011;7846;48.830;9.116;2022-08-21T15:06:13;2.97;;;2.07;;
15488;SDS011;7846;48.830;9.116;2022-08-21T15:08:38;2.10;;;1.90;;
15488;SDS011;7846;48.830;9.116;2022-08-21T15:11:04;2.83;;;1.87;;
15488;SDS011;7846;48.830;9.116;2022-08-21T15:13:30;3.93;;;2.17;;
15488;SDS011;7846;48.830;9.116;2022-08-21T15:15:56;2.37;;;2.00;;
15488;SDS011;7846;48.830;9.116;2022-08-21T15:18:26;4.43;;;2.10;;
15488;SDS011;7846;48.830;9.116;2022-08-21T15:20:53;2.87;;;1.80;;
15488;SDS011;7846;48.830;9.116;2022-08-21T15:23:18;2.20;;;2.00;;
15488;SDS011;7846;48.830;9.116;2022-08-21T15:25:45;2.67;;;2.10;;
15488;SDS011;7846;48.830;9.116;2022-08-21T15:28:13;3.10;;;2.00;;
15488;SDS011;7846;48.830;9.116;2022-08-21T15:30:41;5.30;;;2.10;;
15488;SDS011;7846;48.830;9.116;2022-08-21T15:33:07;3.97;;;2.00;;
15488;SDS011;7846;48.830;9.116;2022-08-21T15:35:35;3.63;;;2.30;;
15488;SDS011;7846;48.830;9.116;2022-08-21T15:38:01;2.57;;;1.97;;
15488;SDS011;7846;48.830;9.116;2022-08-21T15:40:27;2.63;;;2.20;;
15488;SDS011;7846;48.830;9.116;2022-08-21T15:42:57;2.93;;;1.97;;
15488;SDS011;7846;48.830;9.116;2022-08-21T15:45:24;3.97;;;2.20;;
15488;SDS011;7846;48.830;9.116;2022-08-21T15:47:51;2.50;;;2.00;;
15488;SDS011;7846;48.830;9.116;2022-08-21T15:50:18;2.80;;;2.00;;
15488;SDS011;7846;48.830;9.116;2022-08-21T15:52:44;2.90;;;2.00;;
15488;SDS011;7846;48.830;9.116;2022-08-21T15:55:10;2.90;;;1.83;;
15488;SDS011;7846;48.830;9.116;2022-08-21T15:57:37;2.57;;;2.00;;
15488;SDS011;7846;48.830;9.116;2022-08-21T16:00:16;3.47;;;2.10;;
15488;SDS011;7846;48.830;9.116;2022-08-21T16:02:46;3.43;;;2.23;;
15488;SDS011;7846;48.830;9.116;2022-08-21T16:05:14;3.73;;;2.23;;
15488;SDS011;7846;48.830;9.116;2022-08-21T16:07:43;2.83;;;1.90;;
15488;SDS011;7846;48.830;9.116;2022-08-21T16:10:10;2.43;;;1.90;;
15488;SDS011;7846;48.830;9.116;2022-08-21T16:12:41;3.40;;;1.97;;
15488;SDS011;7846;48.830;9.116;2022-08-21T16:15:10;4.27;;;2.40;;
15488;SDS011;7846;48.830;9.116;2022-08-21T16:17:38;2.53;;;1.90;;
15488;SDS011;7846;48.830;9.116;2022-08-21T16:20:07;2.63;;;2.00;;
15488;SDS011;7846;48.830;9.116;2022-08-21T16:22:35;1.93;;;1.67;;
15488;SDS011;7846;48.830;9.116;2022-08-21T16:25:01;2.13;;;1.90;;
15488;SDS011;7846;48.830;9.116;2022-08-21T16:27:28;2.33;;;1.90;;
15488;SDS011;7846;48.830;9.116;2022-08-21T16:29:53;3.33;;;1.90;;
15488;SDS011;7846;48.830;9.116;2022-08-21T16:32:19;2.83;;;2.20;;